createdAt,value
2022-10-05T00:04:59.774Z,10.73
2022-10-05T00:10:14.739Z,10.13
2022-10-05T00:15:20.431Z,10.18
2022-10-05T00:20:25.948Z,10.55
2022-10-05T00:25:30.219Z,11.07
2022-10-05T00:30:34.913Z,10.40
2022-10-05T00:35:38.139Z,13.20
2022-10-05T00:40:56.166Z,10.48
2022-10-05T00:46:07.692Z,8.20
2022-10-05T00:51:27.984Z,9.73
2022-10-05T00:57:01.041Z,9.52
2022-10-05T01:02:10.522Z,9.68
2022-10-05T01:07:22.387Z,9.63
2022-10-05T01:12:33.173Z,10.15
2022-10-05T01:17:44.809Z,11.02
2022-10-05T01:23:08.495Z,11.32
2022-10-05T01:28:20.201Z,11.40
2022-10-05T01:33:31.742Z,9.90
2022-10-05T01:38:44.636Z,11.77
2022-10-05T01:43:52.719Z,13.55
2022-10-05T01:49:12.551Z,15.07
2022-10-05T01:54:28.743Z,14.30
2022-10-05T01:59:48.046Z,15.10
2022-10-05T02:05:01.832Z,16.17
2022-10-05T02:10:11.141Z,16.00
2022-10-05T02:15:19.570Z,16.13
2022-10-05T02:20:26.952Z,16.48
2022-10-05T02:25:34.336Z,15.95
2022-10-05T02:30:45.930Z,15.02
2022-10-05T02:35:49.557Z,14.70
2022-10-05T02:40:58.748Z,14.48
2022-10-05T02:46:13.327Z,14.85
2022-10-05T02:51:24.093Z,13.10
2022-10-05T02:56:33.191Z,15.18
2022-10-05T03:01:47.778Z,13.70
2022-10-05T03:06:59.431Z,11.80
2022-10-05T03:12:15.642Z,12.85
2022-10-05T03:17:23.513Z,11.48
2022-10-05T03:22:39.484Z,12.88
2022-10-05T03:27:49.147Z,12.20
2022-10-05T03:33:03.655Z,11.73
2022-10-05T03:38:17.216Z,11.50
2022-10-05T03:43:44.087Z,11.60
2022-10-05T03:48:53.605Z,12.70
2022-10-05T03:54:00.931Z,11.93
2022-10-05T03:59:13.059Z,12.15
2022-10-05T04:04:26.133Z,11.68
2022-10-05T04:09:35.045Z,10.80
2022-10-05T04:14:42.123Z,11.20
2022-10-05T04:19:53.524Z,12.18
2022-10-05T04:25:03.310Z,11.98
2022-10-05T04:30:12.590Z,12.18
2022-10-05T04:35:33.498Z,11.35
2022-10-05T04:40:56.119Z,13.45
2022-10-05T04:46:16.751Z,12.85
2022-10-05T04:51:36.770Z,13.55
2022-10-05T04:56:46.587Z,13.80
2022-10-05T05:02:06.560Z,12.70
2022-10-05T05:07:23.495Z,11.68
2022-10-05T05:12:35.169Z,11.10
2022-10-05T05:17:55.781Z,12.18
2022-10-05T05:23:11.627Z,11.10
2022-10-05T05:28:24.250Z,11.55
2022-10-05T05:33:38.441Z,11.55
2022-10-05T05:38:50.651Z,11.40
2022-10-05T05:44:05.142Z,11.43
2022-10-05T05:49:17.196Z,11.00
2022-10-05T05:54:32.363Z,11.00
2022-10-05T05:59:50.902Z,11.23
2022-10-05T06:04:57.931Z,15.45
2022-10-05T06:10:15.459Z,14.88
2022-10-05T06:15:36.262Z,14.45
2022-10-05T06:20:45.998Z,13.80
2022-10-05T06:26:15.163Z,12.18
2022-10-05T06:31:30.556Z,13.02
2022-10-05T06:36:41.677Z,10.85
2022-10-05T06:42:02.107Z,16.80
2022-10-05T06:47:31.230Z,14.45
2022-10-05T06:53:02.223Z,14.75
2022-10-05T06:58:26.382Z,12.75
2022-10-05T07:03:42.099Z,14.63
2022-10-05T07:08:58.031Z,14.23
2022-10-05T07:14:16.017Z,15.37
2022-10-05T07:19:30.303Z,16.13
2022-10-05T07:24:35.160Z,14.95
2022-10-05T07:29:49.073Z,16.52
2022-10-05T07:35:03.236Z,15.05
2022-10-05T07:40:14.198Z,16.30
2022-10-05T07:45:29.087Z,9.80
2022-10-05T07:50:38.066Z,9.75
2022-10-05T07:55:50.024Z,8.18
2022-10-05T08:01:04.704Z,7.93
2022-10-05T08:06:15.552Z,8.18
2022-10-05T08:11:22.917Z,4.93
2022-10-05T08:16:30.608Z,5.22
2022-10-05T08:21:38.307Z,4.38
2022-10-05T08:26:52.752Z,3.63
2022-10-05T08:32:00.307Z,4.35
2022-10-05T08:37:08.947Z,3.88
2022-10-05T08:42:52.319Z,3.75
2022-10-05T08:48:16.058Z,3.65
2022-10-05T08:53:50.359Z,3.53
2022-10-05T08:59:37.338Z,2.75
2022-10-05T09:04:58.475Z,2.13
2022-10-05T09:10:25.795Z,2.40
2022-10-05T09:15:38.332Z,2.60
2022-10-05T09:20:50.341Z,2.63
2022-10-05T09:25:58.995Z,2.45
2022-10-05T09:31:20.599Z,2.85
2022-10-05T09:36:53.984Z,3.75
2022-10-05T09:42:43.342Z,2.30
2022-10-05T09:48:26.289Z,2.92
2022-10-05T09:53:52.114Z,2.28
2022-10-05T09:59:32.949Z,2.90
2022-10-05T10:05:20.283Z,2.78
2022-10-05T10:10:48.181Z,2.03
2022-10-05T10:16:09.666Z,3.90
2022-10-05T10:21:40.356Z,2.25
2022-10-05T10:27:16.308Z,2.42
2022-10-05T10:32:52.348Z,1.97
2022-10-05T10:38:24.510Z,2.47
2022-10-05T10:43:53.023Z,2.03
2022-10-05T10:49:03.548Z,4.05
2022-10-05T10:54:42.467Z,3.35
2022-10-05T11:00:18.334Z,3.40
2022-10-05T11:05:31.567Z,2.93
2022-10-05T11:10:58.873Z,2.58
2022-10-05T11:16:28.115Z,3.58
2022-10-05T11:21:36.763Z,3.33
2022-10-05T11:26:58.682Z,3.47
2022-10-05T11:32:27.465Z,3.83
2022-10-05T11:37:59.837Z,3.33
2022-10-05T11:43:41.763Z,3.33
2022-10-05T11:49:04.497Z,2.72
2022-10-05T11:54:19.498Z,3.22
2022-10-05T11:59:30.505Z,2.72
2022-10-05T12:04:40.503Z,1.33
2022-10-05T12:10:17.616Z,1.60
2022-10-05T12:15:26.954Z,1.92
2022-10-05T12:20:39.033Z,1.88
2022-10-05T12:25:46.541Z,1.45
2022-10-05T12:31:13.394Z,1.90
2022-10-05T12:36:26.350Z,1.35
2022-10-05T12:41:36.494Z,2.77
2022-10-05T12:46:47.813Z,2.55
2022-10-05T12:51:58.468Z,1.40
2022-10-05T12:57:12.053Z,1.60
2022-10-05T13:02:26.527Z,1.52
2022-10-05T13:07:49.865Z,1.20
2022-10-05T13:13:05.714Z,2.10
2022-10-05T13:18:19.869Z,2.05
2022-10-05T13:23:31.779Z,2.78
2022-10-05T13:28:42.632Z,1.90
2022-10-05T13:34:08.475Z,2.95
2022-10-05T13:39:29.161Z,2.13
2022-10-05T13:44:38.612Z,1.48
2022-10-05T13:49:48.717Z,2.03
2022-10-05T13:54:59.769Z,1.42
2022-10-05T14:00:07.144Z,1.45
2022-10-05T14:05:20.630Z,2.13
2022-10-05T14:10:35.656Z,1.85
2022-10-05T14:15:42.099Z,1.70
2022-10-05T14:20:59.376Z,1.10
2022-10-05T14:26:04.535Z,1.63
2022-10-05T14:31:15.441Z,1.75
2022-10-05T14:36:35.911Z,2.20
2022-10-05T14:41:49.746Z,3.25
2022-10-05T14:46:55.474Z,4.47
2022-10-05T14:51:58.741Z,4.57
2022-10-05T14:57:08.214Z,4.55
2022-10-05T15:02:38.559Z,4.43
2022-10-05T15:07:44.380Z,4.75
2022-10-05T15:12:49.181Z,4.95
2022-10-05T15:17:58.663Z,5.85
2022-10-05T15:23:14.191Z,5.28
2022-10-05T15:28:32.316Z,5.07
2022-10-05T15:33:39.476Z,4.30
2022-10-05T15:44:10.505Z,4.38
2022-10-05T15:49:25.097Z,5.78
2022-10-05T15:55:07.432Z,6.68
2022-10-05T16:00:15.934Z,5.25
2022-10-05T16:05:51.412Z,5.32
2022-10-05T16:10:54.444Z,4.88
2022-10-05T16:16:12.565Z,4.65
2022-10-05T16:21:26.515Z,5.03
2022-10-05T16:26:44.382Z,4.03
2022-10-05T16:31:57.857Z,4.75
2022-10-05T16:37:10.335Z,4.57
2022-10-05T16:42:25.360Z,4.60
2022-10-05T16:47:43.122Z,4.32
2022-10-05T16:52:52.103Z,4.35
2022-10-05T16:57:57.124Z,5.05
2022-10-05T17:03:13.733Z,4.57
2022-10-05T17:08:36.768Z,4.43
2022-10-05T17:14:16.043Z,4.85
2022-10-05T17:20:00.096Z,5.57
2022-10-05T17:25:13.061Z,4.40
2022-10-05T17:30:38.802Z,5.07
2022-10-05T17:35:52.029Z,4.60
2022-10-05T17:41:15.682Z,4.57
2022-10-05T17:46:39.215Z,4.97
2022-10-05T17:52:22.137Z,4.32
2022-10-05T17:57:27.680Z,4.40
2022-10-05T18:02:42.934Z,4.53
2022-10-05T18:07:48.617Z,4.38
2022-10-05T18:13:12.182Z,4.88
2022-10-05T18:18:55.858Z,4.47
2022-10-05T18:24:17.149Z,3.80
2022-10-05T18:29:49.837Z,3.92
2022-10-05T18:35:02.027Z,3.53
2022-10-05T18:40:22.482Z,3.47
2022-10-05T18:45:33.764Z,3.83
2022-10-05T18:50:44.983Z,3.50
2022-10-05T18:55:56.788Z,4.00
2022-10-05T19:01:17.837Z,3.95
2022-10-05T19:06:26.082Z,3.80
2022-10-05T19:11:37.540Z,3.22
2022-10-05T19:16:56.542Z,3.22
2022-10-05T19:22:05.080Z,3.47
2022-10-05T19:27:18.465Z,4.57
2022-10-05T19:32:31.388Z,4.15
2022-10-05T19:37:43.278Z,4.50
2022-10-05T19:43:10.764Z,4.75
2022-10-05T19:48:26.930Z,5.28
2022-10-05T19:53:32.247Z,9.33
2022-10-05T19:58:40.608Z,3.60
2022-10-05T20:03:49.023Z,3.83
2022-10-05T20:08:53.831Z,3.20
2022-10-05T20:14:20.807Z,3.67
2022-10-05T20:24:51.772Z,3.03
2022-10-05T20:29:55.823Z,3.05
2022-10-05T20:34:58.583Z,3.75
2022-10-05T20:40:02.123Z,2.72
2022-10-05T20:45:11.817Z,2.72
2022-10-05T20:50:15.005Z,2.92
2022-10-05T20:55:17.993Z,3.17
2022-10-05T21:00:22.048Z,2.55
2022-10-05T21:05:25.070Z,2.50
2022-10-05T21:10:27.788Z,3.22
2022-10-05T21:15:32.400Z,2.88
2022-10-05T21:20:35.114Z,3.42
2022-10-05T21:25:37.893Z,3.88
2022-10-05T21:30:41.983Z,4.25
2022-10-05T21:35:44.741Z,2.80
2022-10-05T21:40:47.439Z,3.00
2022-10-05T21:45:51.622Z,3.58
2022-10-05T21:50:54.690Z,3.03
2022-10-05T21:56:02.813Z,2.60
2022-10-05T22:01:07.861Z,2.78
2022-10-05T22:06:10.811Z,2.60
2022-10-05T22:11:16.778Z,2.70
2022-10-05T22:16:24.391Z,2.58
2022-10-05T22:21:27.825Z,2.30
2022-10-05T22:26:31.143Z,2.50
2022-10-05T22:31:35.718Z,2.40
2022-10-05T22:36:38.487Z,2.22
2022-10-05T22:41:41.223Z,2.08
2022-10-05T22:46:45.408Z,2.90
2022-10-05T22:51:49.166Z,2.53
2022-10-05T22:56:51.870Z,2.75
2022-10-05T23:01:56.012Z,3.33
2022-10-05T23:06:59.199Z,2.05
2022-10-05T23:12:02.083Z,2.53
2022-10-05T23:17:07.823Z,2.80
2022-10-05T23:22:10.517Z,3.25
2022-10-05T23:27:13.267Z,2.80
2022-10-05T23:32:17.341Z,2.83
2022-10-05T23:37:23.130Z,2.72
2022-10-05T23:42:25.913Z,3.47
2022-10-05T23:47:31.136Z,2.42
2022-10-05T23:52:33.898Z,2.72
2022-10-05T23:57:36.619Z,3.17
